sensor_id;sensor_type;location;lat;lon;timestamp;temperature;humidity
33994;DHT22;20673;48.980;8.138;2023-02-01T00:00:11;5.00;99.90
33994;DHT22;20673;48.980;8.138;2023-02-01T00:02:37;5.00;99.90
33994;DHT22;20673;48.980;8.138;2023-02-01T00:05:06;5.00;99.90
33994;DHT22;20673;48.980;8.138;2023-02-01T00:07:34;5.00;99.90
33994;DHT22;20673;48.980;8.138;2023-02-01T00:10:00;5.00;99.90
33994;DHT22;20673;48.980;8.138;2023-02-01T00:12:28;5.10;99.90
33994;DHT22;20673;48.980;8.138;2023-02-01T00:14:55;5.10;99.90
33994;DHT22;20673;48.980;8.138;2023-02-01T00:17:21;5.10;99.90
33994;DHT22;20673;48.980;8.138;2023-02-01T00:19:47;5.10;99.90
33994;DHT22;20673;48.980;8.138;2023-02-01T00:22:13;5.10;99.90
33994;DHT22;20673;48.980;8.138;2023-02-01T00:24:39;5.10;99.90
33994;DHT22;20673;48.980;8.138;2023-02-01T00:27:05;5.10;99.90
33994;DHT22;20673;48.980;8.138;2023-02-01T00:29:31;5.10;99.90
33994;DHT22;20673;48.980;8.138;2023-02-01T00:31:57;5.10;99.90
33994;DHT22;20673;48.980;8.138;2023-02-01T00:34:22;5.20;99.90
33994;DHT22;20673;48.980;8.138;2023-02-01T00:36:48;5.10;99.90
33994;DHT22;20673;48.980;8.138;2023-02-01T00:39:15;5.10;99.90
33994;DHT22;20673;48.980;8.138;2023-02-01T00:41:41;5.10;99.90
33994;DHT22;20673;48.980;8.138;2023-02-01T00:44:07;5.20;99.90
33994;DHT22;20673;48.980;8.138;2023-02-01T00:46:33;5.20;99.90
33994;DHT22;20673;48.980;8.138;2023-02-01T00:48:59;5.20;99.90
33994;DHT22;20673;48.980;8.138;2023-02-01T00:51:26;5.20;99.90
33994;DHT22;20673;48.980;8.138;2023-02-01T00:53:53;5.30;99.90
33994;DHT22;20673;48.980;8.138;2023-02-01T00:56:19;5.30;99.90
33994;DHT22;20673;48.980;8.138;2023-02-01T00:58:46;5.30;99.90
33994;DHT22;20673;48.980;8.138;2023-02-01T01:01:16;5.30;99.90
33994;DHT22;20673;48.980;8.138;2023-02-01T01:03:45;5.30;99.90
33994;DHT22;20673;48.980;8.138;2023-02-01T01:06:15;5.30;99.90
33994;DHT22;20673;48.980;8.138;2023-02-01T01:08:42;5.40;99.90
33994;DHT22;20673;48.980;8.138;2023-02-01T01:11:10;5.30;99.90
33994;DHT22;20673;48.980;8.138;2023-02-01T01:13:41;5.40;99.90
33994;DHT22;20673;48.980;8.138;2023-02-01T01:16:08;5.40;99.90
33994;DHT22;20673;48.980;8.138;2023-02-01T01:18:36;5.40;99.90
33994;DHT22;20673;48.980;8.138;2023-02-01T01:21:06;5.40;99.90
33994;DHT22;20673;48.980;8.138;2023-02-01T01:23:34;5.30;99.90
33994;DHT22;20673;48.980;8.138;2023-02-01T01:26:04;5.40;99.90
33994;DHT22;20673;48.980;8.138;2023-02-01T01:28:32;5.40;99.90
33994;DHT22;20673;48.980;8.138;2023-02-01T01:30:58;5.40;99.90
33994;DHT22;20673;48.980;8.138;2023-02-01T01:33:24;5.40;99.90
33994;DHT22;20673;48.980;8.138;2023-02-01T01:35:50;5.40;99.90
33994;DHT22;20673;48.980;8.138;2023-02-01T01:38:16;5.50;99.90
33994;DHT22;20673;48.980;8.138;2023-02-01T01:40:46;5.50;99.90
33994;DHT22;20673;48.980;8.138;2023-02-01T01:43:15;5.50;99.90
33994;DHT22;20673;48.980;8.138;2023-02-01T01:45:43;5.50;99.90
33994;DHT22;20673;48.980;8.138;2023-02-01T01:48:11;5.40;99.90
33994;DHT22;20673;48.980;8.138;2023-02-01T01:50:51;5.50;99.90
33994;DHT22;20673;48.980;8.138;2023-02-01T01:53:24;5.40;99.90
33994;DHT22;20673;48.980;8.138;2023-02-01T01:55:53;5.40;99.90
33994;DHT22;20673;48.980;8.138;2023-02-01T01:58:22;5.40;99.90
33994;DHT22;20673;48.980;8.138;2023-02-01T02:00:50;5.50;99.90
33994;DHT22;20673;48.980;8.138;2023-02-01T02:03:19;5.40;99.90
33994;DHT22;20673;48.980;8.138;2023-02-01T02:05:48;5.40;99.90
33994;DHT22;20673;48.980;8.138;2023-02-01T02:08:17;5.40;99.90
33994;DHT22;20673;48.980;8.138;2023-02-01T02:10:46;5.40;99.90
33994;DHT22;20673;48.980;8.138;2023-02-01T02:13:26;5.50;99.90
33994;DHT22;20673;48.980;8.138;2023-02-01T02:16:04;5.50;99.90
33994;DHT22;20673;48.980;8.138;2023-02-01T02:18:52;5.50;99.90
33994;DHT22;20673;48.980;8.138;2023-02-01T02:34:56;5.50;99.90
33994;DHT22;20673;48.980;8.138;2023-02-01T02:37:28;5.50;99.90
33994;DHT22;20673;48.980;8.138;2023-02-01T02:40:17;5.50;99.90
33994;DHT22;20673;48.980;8.138;2023-02-01T02:42:43;5.50;99.90
33994;DHT22;20673;48.980;8.138;2023-02-01T02:45:30;5.50;99.90
33994;DHT22;20673;48.980;8.138;2023-02-01T02:48:30;5.50;99.90
33994;DHT22;20673;48.980;8.138;2023-02-01T02:51:19;5.50;99.90
33994;DHT22;20673;48.980;8.138;2023-02-01T02:56:55;5.50;99.90
33994;DHT22;20673;48.980;8.138;2023-02-01T02:59:41;5.50;99.90
33994;DHT22;20673;48.980;8.138;2023-02-01T03:02:27;5.40;99.90
33994;DHT22;20673;48.980;8.138;2023-02-01T03:05:12;5.40;99.90
33994;DHT22;20673;48.980;8.138;2023-02-01T03:10:18;5.40;99.90
33994;DHT22;20673;48.980;8.138;2023-02-01T03:12:59;5.30;99.90
33994;DHT22;20673;48.980;8.138;2023-02-01T03:15:43;5.30;99.90
33994;DHT22;20673;48.980;8.138;2023-02-01T03:18:19;5.30;99.90
33994;DHT22;20673;48.980;8.138;2023-02-01T03:20:47;5.30;99.90
33994;DHT22;20673;48.980;8.138;2023-02-01T03:23:16;5.30;99.90
33994;DHT22;20673;48.980;8.138;2023-02-01T03:25:45;5.30;99.90
33994;DHT22;20673;48.980;8.138;2023-02-01T03:28:13;5.40;99.90
33994;DHT22;20673;48.980;8.138;2023-02-01T03:30:44;5.30;99.90
33994;DHT22;20673;48.980;8.138;2023-02-01T03:33:14;5.40;99.90
33994;DHT22;20673;48.980;8.138;2023-02-01T03:46:51;5.40;99.90
33994;DHT22;20673;48.980;8.138;2023-02-01T03:49:36;5.40;99.90
33994;DHT22;20673;48.980;8.138;2023-02-01T03:52:05;5.40;99.90
33994;DHT22;20673;48.980;8.138;2023-02-01T03:54:33;5.40;99.90
33994;DHT22;20673;48.980;8.138;2023-02-01T03:57:03;5.50;99.90
33994;DHT22;20673;48.980;8.138;2023-02-01T03:59:31;5.40;99.90
33994;DHT22;20673;48.980;8.138;2023-02-01T04:01:57;5.40;99.90
33994;DHT22;20673;48.980;8.138;2023-02-01T04:04:23;5.40;99.90
33994;DHT22;20673;48.980;8.138;2023-02-01T04:06:49;5.30;99.90
33994;DHT22;20673;48.980;8.138;2023-02-01T04:09:16;5.30;99.90
33994;DHT22;20673;48.980;8.138;2023-02-01T04:11:42;5.30;99.90
33994;DHT22;20673;48.980;8.138;2023-02-01T04:14:08;5.30;99.90
33994;DHT22;20673;48.980;8.138;2023-02-01T04:16:34;5.30;99.90
33994;DHT22;20673;48.980;8.138;2023-02-01T04:19:01;5.30;99.90
33994;DHT22;20673;48.980;8.138;2023-02-01T04:21:27;5.30;99.90
33994;DHT22;20673;48.980;8.138;2023-02-01T04:23:53;5.30;99.90
33994;DHT22;20673;48.980;8.138;2023-02-01T04:26:19;5.30;99.90
33994;DHT22;20673;48.980;8.138;2023-02-01T04:28:47;5.30;99.90
33994;DHT22;20673;48.980;8.138;2023-02-01T04:31:14;5.30;99.90
33994;DHT22;20673;48.980;8.138;2023-02-01T04:33:40;5.30;99.90
33994;DHT22;20673;48.980;8.138;2023-02-01T04:36:06;5.30;99.90
33994;DHT22;20673;48.980;8.138;2023-02-01T04:38:32;5.20;99.90
33994;DHT22;20673;48.980;8.138;2023-02-01T04:40:58;5.30;99.90
33994;DHT22;20673;48.980;8.138;2023-02-01T04:43:25;5.20;99.90
33994;DHT22;20673;48.980;8.138;2023-02-01T04:45:51;5.20;99.90
33994;DHT22;20673;48.980;8.138;2023-02-01T04:48:18;5.20;99.90
33994;DHT22;20673;48.980;8.138;2023-02-01T04:50:46;5.20;99.90
33994;DHT22;20673;48.980;8.138;2023-02-01T04:53:16;5.20;99.90
33994;DHT22;20673;48.980;8.138;2023-02-01T04:55:43;5.20;99.90
33994;DHT22;20673;48.980;8.138;2023-02-01T04:58:10;5.20;99.90
33994;DHT22;20673;48.980;8.138;2023-02-01T05:00:36;5.20;99.90
33994;DHT22;20673;48.980;8.138;2023-02-01T05:03:02;5.20;99.90
33994;DHT22;20673;48.980;8.138;2023-02-01T05:05:29;5.10;99.90
33994;DHT22;20673;48.980;8.138;2023-02-01T05:07:55;5.10;99.90
33994;DHT22;20673;48.980;8.138;2023-02-01T05:10:21;5.10;99.90
33994;DHT22;20673;48.980;8.138;2023-02-01T05:12:47;5.10;99.90
33994;DHT22;20673;48.980;8.138;2023-02-01T05:15:31;5.10;99.90
33994;DHT22;20673;48.980;8.138;2023-02-01T05:17:57;5.20;99.90
33994;DHT22;20673;48.980;8.138;2023-02-01T05:20:23;5.20;99.90
33994;DHT22;20673;48.980;8.138;2023-02-01T05:22:50;5.20;99.90
33994;DHT22;20673;48.980;8.138;2023-02-01T05:25:16;5.20;99.90
33994;DHT22;20673;48.980;8.138;2023-02-01T05:27:42;5.20;99.90
33994;DHT22;20673;48.980;8.138;2023-02-01T05:30:08;5.30;99.90
33994;DHT22;20673;48.980;8.138;2023-02-01T05:32:35;5.30;99.90
33994;DHT22;20673;48.980;8.138;2023-02-01T05:35:01;5.30;99.90
33994;DHT22;20673;48.980;8.138;2023-02-01T05:37:27;5.40;99.90
33994;DHT22;20673;48.980;8.138;2023-02-01T05:39:53;5.40;99.90
33994;DHT22;20673;48.980;8.138;2023-02-01T05:42:21;5.40;99.90
33994;DHT22;20673;48.980;8.138;2023-02-01T05:44:47;5.40;99.90
33994;DHT22;20673;48.980;8.138;2023-02-01T05:47:13;5.50;99.90
33994;DHT22;20673;48.980;8.138;2023-02-01T05:49:39;5.50;99.90
33994;DHT22;20673;48.980;8.138;2023-02-01T05:52:05;5.60;99.90
33994;DHT22;20673;48.980;8.138;2023-02-01T05:54:31;5.60;99.90
33994;DHT22;20673;48.980;8.138;2023-02-01T05:56:57;5.60;99.90
33994;DHT22;20673;48.980;8.138;2023-02-01T05:59:23;5.60;99.90
33994;DHT22;20673;48.980;8.138;2023-02-01T06:01:49;5.60;99.90
33994;DHT22;20673;48.980;8.138;2023-02-01T06:04:15;5.70;99.90
33994;DHT22;20673;48.980;8.138;2023-02-01T06:06:41;5.70;99.90
33994;DHT22;20673;48.980;8.138;2023-02-01T06:09:07;5.70;99.90
33994;DHT22;20673;48.980;8.138;2023-02-01T06:11:33;5.70;99.90
33994;DHT22;20673;48.980;8.138;2023-02-01T06:13:59;5.80;99.90
33994;DHT22;20673;48.980;8.138;2023-02-01T06:16:25;5.80;99.90
33994;DHT22;20673;48.980;8.138;2023-02-01T06:18:51;5.70;99.90
33994;DHT22;20673;48.980;8.138;2023-02-01T06:21:17;5.80;99.90
33994;DHT22;20673;48.980;8.138;2023-02-01T06:23:45;5.80;99.90
33994;DHT22;20673;48.980;8.138;2023-02-01T06:26:11;5.80;99.90
33994;DHT22;20673;48.980;8.138;2023-02-01T06:28:36;5.90;99.90
33994;DHT22;20673;48.980;8.138;2023-02-01T06:31:04;5.90;99.90
33994;DHT22;20673;48.980;8.138;2023-02-01T06:33:34;5.90;99.90
33994;DHT22;20673;48.980;8.138;2023-02-01T06:36:01;5.90;99.90
33994;DHT22;20673;48.980;8.138;2023-02-01T06:38:29;5.90;99.90
33994;DHT22;20673;48.980;8.138;2023-02-01T06:40:56;5.90;99.90
33994;DHT22;20673;48.980;8.138;2023-02-01T06:43:24;6.00;99.90
33994;DHT22;20673;48.980;8.138;2023-02-01T06:45:51;6.00;99.90
33994;DHT22;20673;48.980;8.138;2023-02-01T06:48:17;6.00;99.90
33994;DHT22;20673;48.980;8.138;2023-02-01T06:50:44;6.00;99.90
33994;DHT22;20673;48.980;8.138;2023-02-01T06:53:10;6.00;99.90
33994;DHT22;20673;48.980;8.138;2023-02-01T06:55:36;6.10;99.90
33994;DHT22;20673;48.980;8.138;2023-02-01T06:58:02;6.10;99.90
33994;DHT22;20673;48.980;8.138;2023-02-01T07:00:28;6.10;99.90
33994;DHT22;20673;48.980;8.138;2023-02-01T07:02:55;6.10;99.90
33994;DHT22;20673;48.980;8.138;2023-02-01T07:05:23;6.10;99.90
33994;DHT22;20673;48.980;8.138;2023-02-01T07:07:49;6.00;99.90
33994;DHT22;20673;48.980;8.138;2023-02-01T07:10:15;6.00;99.90
33994;DHT22;20673;48.980;8.138;2023-02-01T07:12:42;6.10;99.90
33994;DHT22;20673;48.980;8.138;2023-02-01T07:15:08;6.10;99.90
33994;DHT22;20673;48.980;8.138;2023-02-01T07:17:34;6.10;99.90
33994;DHT22;20673;48.980;8.138;2023-02-01T07:20:00;6.00;99.90
33994;DHT22;20673;48.980;8.138;2023-02-01T07:22:27;6.00;99.90
33994;DHT22;20673;48.980;8.138;2023-02-01T07:24:53;6.10;99.90
33994;DHT22;20673;48.980;8.138;2023-02-01T07:27:19;6.10;99.90
33994;DHT22;20673;48.980;8.138;2023-02-01T07:29:45;6.10;99.90
33994;DHT22;20673;48.980;8.138;2023-02-01T07:32:11;6.10;99.90
33994;DHT22;20673;48.980;8.138;2023-02-01T07:34:37;6.10;99.90
33994;DHT22;20673;48.980;8.138;2023-02-01T07:37:03;6.00;99.90
33994;DHT22;20673;48.980;8.138;2023-02-01T07:39:29;5.90;99.90
33994;DHT22;20673;48.980;8.138;2023-02-01T07:41:57;5.90;99.90
33994;DHT22;20673;48.980;8.138;2023-02-01T07:44:23;5.90;99.90
33994;DHT22;20673;48.980;8.138;2023-02-01T07:46:49;5.90;99.90
33994;DHT22;20673;48.980;8.138;2023-02-01T07:49:15;5.80;99.90
33994;DHT22;20673;48.980;8.138;2023-02-01T07:51:43;5.80;99.90
33994;DHT22;20673;48.980;8.138;2023-02-01T07:54:09;5.70;99.90
33994;DHT22;20673;48.980;8.138;2023-02-01T07:56:35;5.70;99.90
33994;DHT22;20673;48.980;8.138;2023-02-01T07:59:01;5.70;99.90
33994;DHT22;20673;48.980;8.138;2023-02-01T08:01:27;5.80;99.90
33994;DHT22;20673;48.980;8.138;2023-02-01T08:03:57;5.80;99.90
33994;DHT22;20673;48.980;8.138;2023-02-01T08:06:24;5.80;99.90
33994;DHT22;20673;48.980;8.138;2023-02-01T08:08:52;5.80;99.90
33994;DHT22;20673;48.980;8.138;2023-02-01T08:11:19;5.80;99.90
33994;DHT22;20673;48.980;8.138;2023-02-01T08:13:46;5.80;99.90
33994;DHT22;20673;48.980;8.138;2023-02-01T08:16:12;5.90;99.90
33994;DHT22;20673;48.980;8.138;2023-02-01T08:18:39;5.90;99.90
33994;DHT22;20673;48.980;8.138;2023-02-01T08:21:10;5.90;99.90
33994;DHT22;20673;48.980;8.138;2023-02-01T08:23:35;5.90;99.90
33994;DHT22;20673;48.980;8.138;2023-02-01T08:26:13;5.90;99.90
33994;DHT22;20673;48.980;8.138;2023-02-01T08:28:45;6.00;99.90
33994;DHT22;20673;48.980;8.138;2023-02-01T08:31:14;5.90;99.90
33994;DHT22;20673;48.980;8.138;2023-02-01T08:33:42;6.00;99.90
33994;DHT22;20673;48.980;8.138;2023-02-01T08:36:09;6.00;99.90
33994;DHT22;20673;48.980;8.138;2023-02-01T08:38:37;5.90;99.90
33994;DHT22;20673;48.980;8.138;2023-02-01T08:41:10;6.00;99.90
33994;DHT22;20673;48.980;8.138;2023-02-01T08:43:33;6.00;99.90
33994;DHT22;20673;48.980;8.138;2023-02-01T08:45:59;6.10;99.90
33994;DHT22;20673;48.980;8.138;2023-02-01T08:48:25;6.20;99.90
33994;DHT22;20673;48.980;8.138;2023-02-01T08:50:51;6.20;99.90
33994;DHT22;20673;48.980;8.138;2023-02-01T08:53:17;6.30;99.90
33994;DHT22;20673;48.980;8.138;2023-02-01T08:55:43;6.30;99.90
33994;DHT22;20673;48.980;8.138;2023-02-01T08:58:11;6.40;99.90
33994;DHT22;20673;48.980;8.138;2023-02-01T09:00:39;6.40;99.90
33994;DHT22;20673;48.980;8.138;2023-02-01T09:03:05;6.50;99.90
33994;DHT22;20673;48.980;8.138;2023-02-01T09:05:33;6.50;99.90
33994;DHT22;20673;48.980;8.138;2023-02-01T09:07:59;6.60;99.90
33994;DHT22;20673;48.980;8.138;2023-02-01T09:10:25;6.60;99.90
33994;DHT22;20673;48.980;8.138;2023-02-01T09:12:51;6.70;99.90
33994;DHT22;20673;48.980;8.138;2023-02-01T09:15:17;6.70;99.90
33994;DHT22;20673;48.980;8.138;2023-02-01T09:17:43;6.70;99.90
33994;DHT22;20673;48.980;8.138;2023-02-01T09:20:09;6.70;99.90
33994;DHT22;20673;48.980;8.138;2023-02-01T09:22:36;6.70;99.90
33994;DHT22;20673;48.980;8.138;2023-02-01T09:25:02;6.70;99.90
33994;DHT22;20673;48.980;8.138;2023-02-01T09:27:28;6.60;99.90
33994;DHT22;20673;48.980;8.138;2023-02-01T09:29:54;6.70;99.90
33994;DHT22;20673;48.980;8.138;2023-02-01T09:32:21;6.60;99.90
33994;DHT22;20673;48.980;8.138;2023-02-01T09:34:48;6.60;99.90
33994;DHT22;20673;48.980;8.138;2023-02-01T09:37:15;6.70;99.90
33994;DHT22;20673;48.980;8.138;2023-02-01T09:39:41;6.70;99.90
33994;DHT22;20673;48.980;8.138;2023-02-01T09:44:56;6.70;99.90
33994;DHT22;20673;48.980;8.138;2023-02-01T09:47:31;6.80;99.90
33994;DHT22;20673;48.980;8.138;2023-02-01T09:50:02;6.70;99.90
33994;DHT22;20673;48.980;8.138;2023-02-01T09:52:47;6.70;99.90
33994;DHT22;20673;48.980;8.138;2023-02-01T09:55:20;6.70;99.90
33994;DHT22;20673;48.980;8.138;2023-02-01T09:57:53;6.70;99.90
33994;DHT22;20673;48.980;8.138;2023-02-01T10:00:25;6.70;99.90
33994;DHT22;20673;48.980;8.138;2023-02-01T10:02:53;6.70;99.90
33994;DHT22;20673;48.980;8.138;2023-02-01T10:05:25;6.80;99.90
33994;DHT22;20673;48.980;8.138;2023-02-01T10:10:40;6.80;99.90
33994;DHT22;20673;48.980;8.138;2023-02-01T10:27:20;6.90;99.90
33994;DHT22;20673;48.980;8.138;2023-02-01T10:29:54;6.90;99.90
33994;DHT22;20673;48.980;8.138;2023-02-01T10:32:30;6.90;99.90
33994;DHT22;20673;48.980;8.138;2023-02-01T10:35:10;6.90;99.90
33994;DHT22;20673;48.980;8.138;2023-02-01T10:37:48;7.00;99.90
33994;DHT22;20673;48.980;8.138;2023-02-01T10:40:20;7.10;99.90
33994;DHT22;20673;48.980;8.138;2023-02-01T10:42:49;7.10;99.90
33994;DHT22;20673;48.980;8.138;2023-02-01T10:45:21;7.20;99.90
33994;DHT22;20673;48.980;8.138;2023-02-01T10:47:49;7.20;99.90
33994;DHT22;20673;48.980;8.138;2023-02-01T10:52:52;7.30;99.90
33994;DHT22;20673;48.980;8.138;2023-02-01T10:58:10;7.30;99.90
33994;DHT22;20673;48.980;8.138;2023-02-01T11:00:43;7.40;99.90
33994;DHT22;20673;48.980;8.138;2023-02-01T11:03:22;7.30;99.90
33994;DHT22;20673;48.980;8.138;2023-02-01T11:05:54;7.40;99.90
33994;DHT22;20673;48.980;8.138;2023-02-01T11:08:21;7.30;99.90
33994;DHT22;20673;48.980;8.138;2023-02-01T11:10:49;7.20;99.90
33994;DHT22;20673;48.980;8.138;2023-02-01T11:13:17;7.20;99.90
33994;DHT22;20673;48.980;8.138;2023-02-01T11:15:44;7.20;99.90
33994;DHT22;20673;48.980;8.138;2023-02-01T11:18:16;7.20;99.90
33994;DHT22;20673;48.980;8.138;2023-02-01T11:20:41;7.20;99.90
33994;DHT22;20673;48.980;8.138;2023-02-01T11:23:19;7.20;99.90
33994;DHT22;20673;48.980;8.138;2023-02-01T11:25:48;7.20;99.90
33994;DHT22;20673;48.980;8.138;2023-02-01T11:28:16;7.20;99.90
33994;DHT22;20673;48.980;8.138;2023-02-01T11:30:43;7.20;99.90
33994;DHT22;20673;48.980;8.138;2023-02-01T11:33:20;7.30;99.90
33994;DHT22;20673;48.980;8.138;2023-02-01T11:35:41;7.30;99.90
33994;DHT22;20673;48.980;8.138;2023-02-01T11:38:15;7.40;99.90
33994;DHT22;20673;48.980;8.138;2023-02-01T11:40:49;7.40;99.90
33994;DHT22;20673;48.980;8.138;2023-02-01T11:43:18;7.50;99.90
33994;DHT22;20673;48.980;8.138;2023-02-01T11:46:00;7.50;99.90
33994;DHT22;20673;48.980;8.138;2023-02-01T11:48:28;7.50;99.90
33994;DHT22;20673;48.980;8.138;2023-02-01T11:58:58;7.50;99.90
33994;DHT22;20673;48.980;8.138;2023-02-01T12:12:54;7.40;99.90
33994;DHT22;20673;48.980;8.138;2023-02-01T12:23:55;7.30;99.90
33994;DHT22;20673;48.980;8.138;2023-02-01T12:34:28;7.30;99.90
33994;DHT22;20673;48.980;8.138;2023-02-01T12:37:13;7.30;99.90
33994;DHT22;20673;48.980;8.138;2023-02-01T12:39:57;7.30;99.90
33994;DHT22;20673;48.980;8.138;2023-02-01T12:42:33;7.20;99.90
33994;DHT22;20673;48.980;8.138;2023-02-01T12:45:13;7.20;99.90
33994;DHT22;20673;48.980;8.138;2023-02-01T12:47:40;7.20;99.90
33994;DHT22;20673;48.980;8.138;2023-02-01T12:50:27;7.20;99.90
33994;DHT22;20673;48.980;8.138;2023-02-01T12:53:08;7.10;99.90
33994;DHT22;20673;48.980;8.138;2023-02-01T12:55:35;7.20;99.90
33994;DHT22;20673;48.980;8.138;2023-02-01T12:58:11;7.20;99.90
33994;DHT22;20673;48.980;8.138;2023-02-01T13:06:08;7.20;99.90
33994;DHT22;20673;48.980;8.138;2023-02-01T13:09:05;7.20;99.90
33994;DHT22;20673;48.980;8.138;2023-02-01T13:11:42;7.20;99.90
33994;DHT22;20673;48.980;8.138;2023-02-01T13:14:25;7.20;99.90
33994;DHT22;20673;48.980;8.138;2023-02-01T13:17:02;7.20;99.90
33994;DHT22;20673;48.980;8.138;2023-02-01T13:22:25;7.20;99.90
33994;DHT22;20673;48.980;8.138;2023-02-01T13:25:03;7.20;99.90
33994;DHT22;20673;48.980;8.138;2023-02-01T13:27:32;7.20;99.90
33994;DHT22;20673;48.980;8.138;2023-02-01T13:30:18;7.20;99.90
33994;DHT22;20673;48.980;8.138;2023-02-01T13:43:47;7.10;99.90
33994;DHT22;20673;48.980;8.138;2023-02-01T13:46:15;7.20;99.90
33994;DHT22;20673;48.980;8.138;2023-02-01T13:48:46;7.20;99.90
33994;DHT22;20673;48.980;8.138;2023-02-01T13:51:16;7.20;99.90
33994;DHT22;20673;48.980;8.138;2023-02-01T13:53:46;7.20;99.90
33994;DHT22;20673;48.980;8.138;2023-02-01T13:56:15;7.20;99.90
33994;DHT22;20673;48.980;8.138;2023-02-01T13:58:46;7.20;99.90
33994;DHT22;20673;48.980;8.138;2023-02-01T14:03:56;7.20;99.90
33994;DHT22;20673;48.980;8.138;2023-02-01T14:09:13;7.20;99.90
33994;DHT22;20673;48.980;8.138;2023-02-01T14:11:49;7.30;99.90
33994;DHT22;20673;48.980;8.138;2023-02-01T14:21:53;7.40;99.90
33994;DHT22;20673;48.980;8.138;2023-02-01T14:26:55;7.40;99.90
33994;DHT22;20673;48.980;8.138;2023-02-01T14:29:26;7.30;99.90
33994;DHT22;20673;48.980;8.138;2023-02-01T14:32:02;7.40;99.90
33994;DHT22;20673;48.980;8.138;2023-02-01T14:42:29;7.40;99.90
33994;DHT22;20673;48.980;8.138;2023-02-01T14:47:54;7.40;99.90
33994;DHT22;20673;48.980;8.138;2023-02-01T14:53:04;7.50;99.90
33994;DHT22;20673;48.980;8.138;2023-02-01T14:55:40;7.50;99.90
33994;DHT22;20673;48.980;8.138;2023-02-01T15:01:17;7.50;99.90
33994;DHT22;20673;48.980;8.138;2023-02-01T15:04:15;7.50;99.90
33994;DHT22;20673;48.980;8.138;2023-02-01T15:06:54;7.50;99.90
33994;DHT22;20673;48.980;8.138;2023-02-01T15:14:42;7.60;99.90
33994;DHT22;20673;48.980;8.138;2023-02-01T15:17:20;7.50;99.90
33994;DHT22;20673;48.980;8.138;2023-02-01T15:19:55;7.60;99.90
33994;DHT22;20673;48.980;8.138;2023-02-01T15:22:23;7.50;99.90
33994;DHT22;20673;48.980;8.138;2023-02-01T15:24:58;7.50;99.90
33994;DHT22;20673;48.980;8.138;2023-02-01T15:27:25;7.50;99.90
33994;DHT22;20673;48.980;8.138;2023-02-01T15:30:04;7.50;99.90
33994;DHT22;20673;48.980;8.138;2023-02-01T15:32:34;7.40;99.90
33994;DHT22;20673;48.980;8.138;2023-02-01T15:35:03;7.40;99.90
33994;DHT22;20673;48.980;8.138;2023-02-01T15:37:31;7.40;99.90
33994;DHT22;20673;48.980;8.138;2023-02-01T15:42:49;7.40;99.90
33994;DHT22;20673;48.980;8.138;2023-02-01T15:45:16;7.40;99.90
33994;DHT22;20673;48.980;8.138;2023-02-01T15:47:46;7.40;99.90
33994;DHT22;20673;48.980;8.138;2023-02-01T15:50:12;7.40;99.90
33994;DHT22;20673;48.980;8.138;2023-02-01T15:52:41;7.40;99.90
33994;DHT22;20673;48.980;8.138;2023-02-01T15:55:08;7.30;99.90
33994;DHT22;20673;48.980;8.138;2023-02-01T15:57:38;7.30;99.90
33994;DHT22;20673;48.980;8.138;2023-02-01T16:02:53;7.20;99.90
33994;DHT22;20673;48.980;8.138;2023-02-01T16:08:13;7.20;99.90
33994;DHT22;20673;48.980;8.138;2023-02-01T16:10:42;7.20;99.90
33994;DHT22;20673;48.980;8.138;2023-02-01T16:13:12;7.20;99.90
33994;DHT22;20673;48.980;8.138;2023-02-01T16:15:40;7.20;99.90
33994;DHT22;20673;48.980;8.138;2023-02-01T16:18:07;7.20;99.90
33994;DHT22;20673;48.980;8.138;2023-02-01T16:20:34;7.10;99.90
33994;DHT22;20673;48.980;8.138;2023-02-01T16:23:01;7.20;99.90
33994;DHT22;20673;48.980;8.138;2023-02-01T16:25:27;7.20;99.90
33994;DHT22;20673;48.980;8.138;2023-02-01T16:27:53;7.20;99.90
33994;DHT22;20673;48.980;8.138;2023-02-01T16:30:19;7.20;99.90
33994;DHT22;20673;48.980;8.138;2023-02-01T16:32:54;7.20;99.90
33994;DHT22;20673;48.980;8.138;2023-02-01T16:35:26;7.20;99.90
33994;DHT22;20673;48.980;8.138;2023-02-01T16:37:56;7.20;99.90
33994;DHT22;20673;48.980;8.138;2023-02-01T16:40:24;7.10;99.90
33994;DHT22;20673;48.980;8.138;2023-02-01T16:42:50;7.10;99.90
33994;DHT22;20673;48.980;8.138;2023-02-01T16:45:18;7.10;99.90
33994;DHT22;20673;48.980;8.138;2023-02-01T16:47:46;7.10;99.90
33994;DHT22;20673;48.980;8.138;2023-02-01T16:50:21;7.10;99.90
33994;DHT22;20673;48.980;8.138;2023-02-01T16:52:46;7.10;99.90
33994;DHT22;20673;48.980;8.138;2023-02-01T16:55:13;7.20;99.90
33994;DHT22;20673;48.980;8.138;2023-02-01T16:57:41;7.10;99.90
33994;DHT22;20673;48.980;8.138;2023-02-01T17:00:08;7.10;99.90
33994;DHT22;20673;48.980;8.138;2023-02-01T17:02:38;7.10;99.90
33994;DHT22;20673;48.980;8.138;2023-02-01T17:05:05;7.10;99.90
33994;DHT22;20673;48.980;8.138;2023-02-01T17:07:31;7.10;99.90
33994;DHT22;20673;48.980;8.138;2023-02-01T17:09:57;7.10;99.90
33994;DHT22;20673;48.980;8.138;2023-02-01T17:12:25;7.10;99.90
33994;DHT22;20673;48.980;8.138;2023-02-01T17:14:52;7.10;99.90
33994;DHT22;20673;48.980;8.138;2023-02-01T17:17:19;7.10;99.90
33994;DHT22;20673;48.980;8.138;2023-02-01T17:19:46;7.00;99.90
33994;DHT22;20673;48.980;8.138;2023-02-01T17:22:16;7.10;99.90
33994;DHT22;20673;48.980;8.138;2023-02-01T17:24:42;7.10;99.90
33994;DHT22;20673;48.980;8.138;2023-02-01T17:27:09;7.10;99.90
33994;DHT22;20673;48.980;8.138;2023-02-01T17:29:35;7.10;99.90
33994;DHT22;20673;48.980;8.138;2023-02-01T17:32:01;7.00;99.90
33994;DHT22;20673;48.980;8.138;2023-02-01T17:34:27;7.00;99.90
33994;DHT22;20673;48.980;8.138;2023-02-01T17:36:53;7.00;99.90
33994;DHT22;20673;48.980;8.138;2023-02-01T17:39:19;7.00;99.90
33994;DHT22;20673;48.980;8.138;2023-02-01T17:42:04;7.00;99.90
33994;DHT22;20673;48.980;8.138;2023-02-01T17:44:32;7.00;99.90
33994;DHT22;20673;48.980;8.138;2023-02-01T17:46:58;7.00;99.90
33994;DHT22;20673;48.980;8.138;2023-02-01T17:49:24;7.10;99.90
33994;DHT22;20673;48.980;8.138;2023-02-01T17:51:53;7.10;99.90
33994;DHT22;20673;48.980;8.138;2023-02-01T17:54:19;7.10;99.90
33994;DHT22;20673;48.980;8.138;2023-02-01T17:56:45;7.00;99.90
33994;DHT22;20673;48.980;8.138;2023-02-01T17:59:14;7.00;99.90
33994;DHT22;20673;48.980;8.138;2023-02-01T18:01:42;7.00;99.90
33994;DHT22;20673;48.980;8.138;2023-02-01T18:04:12;7.00;99.90
33994;DHT22;20673;48.980;8.138;2023-02-01T18:06:40;7.00;99.90
33994;DHT22;20673;48.980;8.138;2023-02-01T18:09:06;7.00;99.90
33994;DHT22;20673;48.980;8.138;2023-02-01T18:11:33;7.00;99.90
33994;DHT22;20673;48.980;8.138;2023-02-01T18:13:59;7.00;99.90
33994;DHT22;20673;48.980;8.138;2023-02-01T18:16:26;7.00;99.90
33994;DHT22;20673;48.980;8.138;2023-02-01T18:18:53;7.00;99.90
33994;DHT22;20673;48.980;8.138;2023-02-01T18:21:21;7.00;99.90
33994;DHT22;20673;48.980;8.138;2023-02-01T18:23:48;7.00;99.90
33994;DHT22;20673;48.980;8.138;2023-02-01T18:26:15;7.00;99.90
33994;DHT22;20673;48.980;8.138;2023-02-01T18:28:42;7.00;99.90
33994;DHT22;20673;48.980;8.138;2023-02-01T18:31:22;7.00;99.90
33994;DHT22;20673;48.980;8.138;2023-02-01T18:33:54;7.00;99.90